Terminal Aerodrome Forecast
Issued by NWS

Home | Current Version | Previous Version | Text Only | Print | Product List | Glossary On
Versions: 1 2 3 4 5 6 7 8 9 10 11 12 13 14 15 16 17 18 19 20 21
000
FTUS42 KJAX 110115 AAB
TAFCRG
TAF AMD
KCRG 110115Z 1101/1124 02008KT P6SM SCT025
     FM110200 02009KT P6SM BKN030
     FM111000 08007KT P6SM VCSH BKN025 OVC040
     FM111700 13008KT P6SM VCSH BKN040=

USA.gov is the U.S. government's official web portal to all federal, state and local government web resources and services.